createdAt,value
2017-03-20T00:00:28.223Z,1000.63
2017-03-20T00:01:28.198Z,1000.61
2017-03-20T00:02:28.184Z,1000.64
2017-03-20T00:03:28.160Z,1000.64
2017-03-20T00:04:28.148Z,1000.64
2017-03-20T00:05:28.121Z,1000.62
2017-03-20T00:06:28.101Z,1000.66
2017-03-20T00:07:28.080Z,1000.61
2017-03-20T00:08:28.059Z,1000.63
2017-03-20T00:09:28.046Z,1000.64
2017-03-20T00:10:28.019Z,1000.62
2017-03-20T00:11:28.003Z,1000.66
2017-03-20T00:12:27.987Z,1000.62
2017-03-20T00:13:27.965Z,1000.64
2017-03-20T00:14:27.946Z,1000.66
2017-03-20T00:15:27.918Z,1000.65
2017-03-20T00:16:27.901Z,1000.61
2017-03-20T00:17:27.888Z,1000.63
2017-03-20T00:18:27.855Z,1000.64
2017-03-20T00:19:27.838Z,1000.65
2017-03-20T00:20:27.815Z,1000.68
2017-03-20T00:21:27.798Z,1000.7
2017-03-20T00:22:27.783Z,1000.71
2017-03-20T00:23:27.764Z,1000.69
2017-03-20T00:24:27.740Z,1000.69
2017-03-20T00:25:27.722Z,1000.66
2017-03-20T00:26:27.694Z,1000.68
2017-03-20T00:27:27.677Z,1000.65
2017-03-20T00:28:27.662Z,1000.69
2017-03-20T00:29:27.646Z,1000.67
2017-03-20T00:30:27.618Z,1000.67
2017-03-20T00:31:27.606Z,1000.66
2017-03-20T00:32:27.575Z,1000.67
2017-03-20T00:33:27.567Z,1000.74
2017-03-20T00:34:27.539Z,1000.69
2017-03-20T00:35:27.523Z,1000.68
2017-03-20T00:36:27.495Z,1000.71
2017-03-20T00:37:27.487Z,1000.67
2017-03-20T00:38:27.458Z,1000.69
2017-03-20T00:39:27.437Z,1000.74
2017-03-20T00:40:27.416Z,1000.77
2017-03-20T00:41:27.396Z,1000.72
2017-03-20T00:42:27.376Z,1000.66
2017-03-20T00:43:27.362Z,1000.63
2017-03-20T00:44:27.342Z,1000.64
2017-03-20T00:45:27.316Z,1000.64
2017-03-20T00:46:27.300Z,1000.68
2017-03-20T00:47:27.280Z,1000.61
2017-03-20T00:48:27.267Z,1000.63
2017-03-20T00:49:27.240Z,1000.68
2017-03-20T00:50:27.217Z,1000.67
2017-03-20T00:51:27.197Z,1000.63
2017-03-20T00:52:27.175Z,1000.62
2017-03-20T00:53:27.168Z,1000.64
2017-03-20T00:54:27.136Z,1000.58
2017-03-20T00:55:27.126Z,1000.64
2017-03-20T00:56:27.103Z,1000.59
2017-03-20T00:57:27.081Z,1000.61
2017-03-20T00:58:27.064Z,1000.56
2017-03-20T00:59:27.042Z,1000.56
2017-03-20T01:00:27.018Z,1000.6
2017-03-20T01:01:27.001Z,1000.59
2017-03-20T01:02:26.985Z,1000.6
2017-03-20T01:03:26.963Z,1000.58
2017-03-20T01:04:26.946Z,1000.56
2017-03-20T01:05:26.919Z,1000.54
2017-03-20T01:06:26.899Z,1000.52
2017-03-20T01:07:26.877Z,1000.52
2017-03-20T01:08:26.861Z,1000.47
2017-03-20T01:09:26.841Z,1000.48
2017-03-20T01:10:26.823Z,1000.49
2017-03-20T01:11:26.798Z,1000.51
2017-03-20T01:12:26.777Z,1000.47
2017-03-20T01:13:26.766Z,1000.48
2017-03-20T01:14:26.736Z,1000.48
2017-03-20T01:15:26.727Z,1000.48
2017-03-20T01:16:26.705Z,1000.58
2017-03-20T01:17:26.679Z,1000.5
2017-03-20T01:18:26.661Z,1000.41
2017-03-20T01:19:26.640Z,1000.39
2017-03-20T01:20:26.626Z,1000.39
2017-03-20T01:21:26.657Z,1000.4
2017-03-20T01:22:26.582Z,1000.42
2017-03-20T01:23:26.565Z,1000.47
2017-03-20T01:24:26.546Z,1000.39
2017-03-20T01:25:26.527Z,1000.43
2017-03-20T01:26:26.508Z,1000.4
2017-03-20T01:27:26.484Z,1000.42
2017-03-20T01:28:26.467Z,1000.36
2017-03-20T01:29:26.443Z,1000.43
2017-03-20T01:30:26.420Z,1000.43
2017-03-20T01:31:26.400Z,1000.44
2017-03-20T01:32:26.382Z,1000.39
2017-03-20T01:33:26.364Z,1000.36
2017-03-20T01:34:26.347Z,1000.33
2017-03-20T01:35:26.324Z,1000.36
2017-03-20T01:36:26.306Z,1000.4
2017-03-20T01:37:26.286Z,1000.39
2017-03-20T01:38:26.262Z,1000.3
2017-03-20T01:39:26.246Z,1000.36
2017-03-20T01:40:26.229Z,1000.32
2017-03-20T01:41:26.200Z,1000.32
2017-03-20T01:42:26.180Z,1000.27
2017-03-20T01:43:26.161Z,1000.38
2017-03-20T01:44:26.145Z,1000.32
2017-03-20T01:45:26.121Z,1000.32
2017-03-20T01:46:26.103Z,1000.34
2017-03-20T01:47:26.084Z,1000.29
2017-03-20T01:48:26.067Z,1000.35
2017-03-20T01:49:26.044Z,1000.37
2017-03-20T01:50:26.026Z,1000.37
2017-03-20T01:51:26.001Z,1000.37
2017-03-20T01:52:25.982Z,1000.44
2017-03-20T01:53:25.962Z,1000.37
2017-03-20T01:54:25.946Z,1000.37
2017-03-20T01:55:25.926Z,1000.36
2017-03-20T01:56:25.907Z,1000.4
2017-03-20T01:57:25.883Z,1000.35
2017-03-20T01:58:25.867Z,1000.45
2017-03-20T01:59:25.843Z,1000.4
2017-03-20T02:00:25.825Z,1000.38
2017-03-20T02:01:25.804Z,1000.38
2017-03-20T02:02:25.783Z,1000.38
2017-03-20T02:03:25.767Z,1000.3
2017-03-20T02:04:25.740Z,1000.34
2017-03-20T02:05:25.725Z,1000.31
2017-03-20T02:06:25.702Z,1000.28
2017-03-20T02:07:25.687Z,1000.3
2017-03-20T02:08:25.662Z,1000.31
2017-03-20T02:09:25.646Z,1000.34
2017-03-20T02:10:25.626Z,1000.35
2017-03-20T02:11:25.600Z,1000.46
2017-03-20T02:12:25.584Z,1000.39
2017-03-20T02:13:25.561Z,1000.34
2017-03-20T02:14:25.552Z,1000.42
2017-03-20T02:15:25.523Z,1000.35
2017-03-20T02:16:25.504Z,1000.37
2017-03-20T02:17:25.486Z,1000.41
2017-03-20T02:18:25.465Z,1000.4
2017-03-20T02:19:25.441Z,1000.3
2017-03-20T02:20:25.431Z,1000.35
2017-03-20T02:21:25.409Z,1000.36
2017-03-20T02:22:25.384Z,1000.31
2017-03-20T02:23:25.363Z,1000.34
2017-03-20T02:24:25.347Z,1000.3
2017-03-20T02:25:25.323Z,1000.43
2017-03-20T02:26:25.306Z,1000.31
2017-03-20T02:27:25.285Z,1000.31
2017-03-20T02:28:25.267Z,1000.38
2017-03-20T02:29:25.244Z,1000.45
2017-03-20T02:30:25.220Z,1000.39
2017-03-20T02:31:25.204Z,1000.36
2017-03-20T02:32:25.180Z,1000.43
2017-03-20T02:33:25.167Z,1000.38
2017-03-20T02:34:25.199Z,1000.39
2017-03-20T02:35:25.125Z,1000.42
2017-03-20T02:36:25.102Z,1000.45
2017-03-20T02:37:25.086Z,1000.4
2017-03-20T02:38:25.063Z,1000.39
2017-03-20T02:39:25.041Z,1000.42
2017-03-20T02:40:25.023Z,1000.38
2017-03-20T02:41:25.000Z,1000.39
2017-03-20T02:42:25.028Z,1000.43
2017-03-20T02:43:24.959Z,1000.39
2017-03-20T02:44:24.935Z,1000.38
2017-03-20T02:45:24.926Z,1000.47
2017-03-20T02:46:24.907Z,1000.4
2017-03-20T02:47:24.881Z,1000.45
2017-03-20T02:48:24.862Z,1000.38
2017-03-20T02:49:24.846Z,1000.37
2017-03-20T02:50:24.816Z,1000.39
2017-03-20T02:51:24.798Z,1000.38
2017-03-20T02:52:24.826Z,1000.36
2017-03-20T02:53:24.759Z,1000.4
2017-03-20T02:54:24.797Z,1000.39
2017-03-20T02:55:24.716Z,1000.4
2017-03-20T02:56:24.701Z,1000.39
2017-03-20T02:57:24.676Z,1000.43
2017-03-20T02:58:24.709Z,1000.38
2017-03-20T02:59:24.638Z,1000.42
2017-03-20T03:00:24.667Z,1000.42
2017-03-20T03:01:24.600Z,1000.38
2017-03-20T03:02:24.577Z,1000.35
2017-03-20T03:03:24.558Z,1000.37
2017-03-20T03:04:24.549Z,1000.38
2017-03-20T03:05:24.516Z,1000.34
2017-03-20T03:06:24.545Z,1000.36
2017-03-20T03:07:24.477Z,1000.39
2017-03-20T03:08:24.453Z,1000.39
2017-03-20T03:09:24.436Z,1000.4
2017-03-20T03:10:24.414Z,1000.4
2017-03-20T03:11:24.397Z,1000.4
2017-03-20T03:12:24.377Z,1000.39
2017-03-20T03:13:24.358Z,1000.36
2017-03-20T03:14:24.337Z,1000.35
2017-03-20T03:15:24.316Z,1000.34
2017-03-20T03:16:24.297Z,1000.33
2017-03-20T03:17:24.272Z,1000.38
2017-03-20T03:18:24.254Z,1000.39
2017-03-20T03:19:24.239Z,1000.36
2017-03-20T03:20:24.216Z,1000.42
2017-03-20T03:21:24.196Z,1000.33
2017-03-20T03:22:24.176Z,1000.37
2017-03-20T03:23:24.156Z,1000.39
2017-03-20T03:24:24.137Z,1000.34
2017-03-20T03:25:24.113Z,1000.34
2017-03-20T03:26:24.096Z,1000.32
2017-03-20T03:27:24.075Z,1000.32
2017-03-20T03:28:24.052Z,1000.3
2017-03-20T03:29:24.038Z,1000.32
2017-03-20T03:30:24.015Z,1000.33
2017-03-20T03:31:23.997Z,1000.3
2017-03-20T03:32:23.977Z,1000.31
2017-03-20T03:33:23.958Z,1000.3
2017-03-20T03:34:23.937Z,1000.32
2017-03-20T03:35:23.915Z,1000.29
2017-03-20T03:36:23.894Z,1000.22
2017-03-20T03:37:23.872Z,1000.24
2017-03-20T03:38:23.854Z,1000.25
2017-03-20T03:39:23.837Z,1000.2
2017-03-20T03:40:23.815Z,1000.18
2017-03-20T03:41:23.792Z,1000.2
2017-03-20T03:42:23.777Z,1000.24
2017-03-20T03:43:23.758Z,1000.26
2017-03-20T03:44:23.730Z,1000.25
2017-03-20T03:45:23.717Z,1000.23
2017-03-20T03:46:23.696Z,1000.24
2017-03-20T03:47:23.676Z,1000.21
2017-03-20T03:48:23.655Z,1000.16
2017-03-20T03:49:23.633Z,1000.21
2017-03-20T03:50:23.606Z,1000.15
2017-03-20T03:51:23.590Z,1000.14
2017-03-20T03:52:23.571Z,1000.14
2017-03-20T03:53:23.548Z,1000.21
2017-03-20T03:54:23.527Z,1000.16
2017-03-20T03:55:23.508Z,1000.13
2017-03-20T03:56:23.487Z,1000.18
2017-03-20T03:57:23.467Z,1000.12
2017-03-20T03:58:23.447Z,1000.22
2017-03-20T03:59:23.429Z,1000.17
2017-03-20T04:00:23.407Z,1000.13
2017-03-20T04:01:23.387Z,1000.03
2017-03-20T04:02:23.468Z,1000.12
2017-03-20T04:03:23.348Z,1000.04
2017-03-20T04:04:23.425Z,1000.1
2017-03-20T04:05:23.308Z,1000.06
2017-03-20T04:06:23.335Z,1000.03
2017-03-20T04:07:23.266Z,1000.07
2017-03-20T04:08:23.348Z,999.96
2017-03-20T04:09:23.226Z,999.97
2017-03-20T04:10:23.206Z,999.94
2017-03-20T04:11:23.188Z,999.98
2017-03-20T04:12:23.268Z,999.94
2017-03-20T04:13:23.146Z,999.94
2017-03-20T04:14:23.178Z,999.99
2017-03-20T04:15:23.107Z,1000
2017-03-20T04:16:23.086Z,1000.02
2017-03-20T04:17:23.070Z,1000.03
2017-03-20T04:18:23.046Z,1000.13
2017-03-20T04:19:23.026Z,1000.12
2017-03-20T04:20:23.059Z,1000.12
2017-03-20T04:21:22.987Z,1000.16
2017-03-20T04:22:23.118Z,1000.21
2017-03-20T04:23:22.941Z,1000.19
2017-03-20T04:24:22.935Z,1000.17
2017-03-20T04:25:22.907Z,1000.25
2017-03-20T04:26:22.986Z,1000.3
2017-03-20T04:27:22.866Z,1000.23
2017-03-20T04:28:22.897Z,1000.26
2017-03-20T04:29:22.825Z,1000.25
2017-03-20T04:30:22.804Z,1000.28
2017-03-20T04:31:22.782Z,1000.31
2017-03-20T04:32:22.816Z,1000.31
2017-03-20T04:33:22.743Z,1000.3
2017-03-20T04:34:22.725Z,1000.25
2017-03-20T04:35:22.708Z,1000.35
2017-03-20T04:36:22.687Z,1000.34
2017-03-20T04:37:22.666Z,1000.31
2017-03-20T04:38:22.639Z,1000.34
2017-03-20T04:39:22.618Z,1000.33
2017-03-20T04:40:22.608Z,1000.4
2017-03-20T04:41:22.581Z,1000.34
2017-03-20T04:42:22.666Z,1000.29
2017-03-20T04:43:22.548Z,1000.33
2017-03-20T04:44:22.522Z,1000.26
2017-03-20T04:45:22.500Z,1000.34
2017-03-20T04:46:22.487Z,1000.32
2017-03-20T04:47:22.461Z,1000.37
2017-03-20T04:48:22.447Z,1000.31
2017-03-20T04:49:22.422Z,1000.34
2017-03-20T04:50:22.398Z,1000.31
2017-03-20T04:51:22.381Z,1000.32
2017-03-20T04:52:22.358Z,1000.28
2017-03-20T04:53:22.336Z,1000.24
2017-03-20T04:54:22.318Z,1000.25
2017-03-20T04:55:22.296Z,1000.21
2017-03-20T04:56:22.276Z,1000.3
2017-03-20T04:57:22.256Z,1000.26
2017-03-20T04:58:22.237Z,1000.27
2017-03-20T04:59:22.215Z,1000.24
2017-03-20T05:00:22.197Z,1000.29
2017-03-20T05:01:22.176Z,1000.23
2017-03-20T05:02:22.155Z,1000.24
2017-03-20T05:03:22.137Z,1000.31
2017-03-20T05:04:22.117Z,1000.27
2017-03-20T05:05:22.093Z,1000.34
2017-03-20T05:06:22.078Z,1000.27
2017-03-20T05:07:22.056Z,1000.31
2017-03-20T05:08:22.037Z,1000.33
2017-03-20T05:09:22.015Z,1000.36
2017-03-20T05:10:21.994Z,1000.35
2017-03-20T05:11:21.973Z,1000.39
2017-03-20T05:12:21.957Z,1000.4
2017-03-20T05:13:21.979Z,1000.4
2017-03-20T05:14:21.914Z,1000.38
2017-03-20T05:15:21.895Z,1000.38
2017-03-20T05:16:21.872Z,1000.32
2017-03-20T05:17:21.860Z,1000.38
2017-03-20T05:18:21.875Z,1000.41
2017-03-20T05:19:21.817Z,1000.45
2017-03-20T05:20:21.797Z,1000.37
2017-03-20T05:21:21.773Z,1000.38
2017-03-20T05:22:21.750Z,1000.37
2017-03-20T05:23:21.735Z,1000.39
2017-03-20T05:24:21.716Z,1000.38
2017-03-20T05:25:21.695Z,1000.35
2017-03-20T05:26:21.675Z,1000.39
2017-03-20T05:27:21.661Z,1000.38
2017-03-20T05:28:21.645Z,1000.4
2017-03-20T05:29:21.616Z,1000.44
2017-03-20T05:30:21.597Z,1000.42
2017-03-20T05:31:21.577Z,1000.43
2017-03-20T05:32:21.553Z,1000.41
2017-03-20T05:33:21.532Z,1000.43
2017-03-20T05:34:21.557Z,1000.46
2017-03-20T05:35:21.491Z,1000.42
2017-03-20T05:36:21.469Z,1000.43
2017-03-20T05:37:21.457Z,1000.42
2017-03-20T05:38:21.433Z,1000.41
2017-03-20T05:39:21.422Z,1000.46
2017-03-20T05:40:21.395Z,1000.42
2017-03-20T05:41:21.368Z,1000.37
2017-03-20T05:42:21.356Z,1000.43
2017-03-20T05:43:21.332Z,1000.42
2017-03-20T05:44:21.364Z,1000.42
2017-03-20T05:45:21.299Z,1000.44
2017-03-20T05:46:21.277Z,1000.44
2017-03-20T05:47:21.302Z,1000.52
2017-03-20T05:48:21.231Z,1000.48
2017-03-20T05:49:21.216Z,1000.41
2017-03-20T05:50:21.192Z,1000.45
2017-03-20T05:51:21.168Z,1000.49
2017-03-20T05:52:21.155Z,1000.4
2017-03-20T05:53:21.129Z,1000.48
2017-03-20T05:54:21.239Z,1000.41
2017-03-20T05:55:21.086Z,1000.4
2017-03-20T05:56:21.071Z,1000.4
2017-03-20T05:57:21.078Z,1000.43
2017-03-20T05:58:21.028Z,1000.36
2017-03-20T05:59:21.012Z,1000.36
2017-03-20T06:00:20.986Z,1000.37
2017-03-20T06:01:20.966Z,1000.37
2017-03-20T06:02:20.949Z,1000.39
2017-03-20T06:03:20.927Z,1000.38
2017-03-20T06:04:20.906Z,1000.39
2017-03-20T06:05:20.895Z,1000.39
2017-03-20T06:06:20.866Z,1000.39
2017-03-20T06:07:20.846Z,1000.41
2017-03-20T06:08:20.829Z,1000.38
2017-03-20T06:09:20.813Z,1000.44
2017-03-20T06:10:20.785Z,1000.43
2017-03-20T06:11:20.773Z,1000.44
2017-03-20T06:12:20.748Z,1000.42
2017-03-20T06:13:20.728Z,1000.44
2017-03-20T06:14:20.706Z,1000.46
2017-03-20T06:15:20.684Z,1000.51
2017-03-20T06:16:20.666Z,1000.46
2017-03-20T06:17:20.647Z,1000.47
2017-03-20T06:18:20.626Z,1000.43
2017-03-20T06:19:20.609Z,1000.45
2017-03-20T06:20:20.586Z,1000.53
2017-03-20T06:21:20.563Z,1000.45
2017-03-20T06:22:20.543Z,1000.5
2017-03-20T06:23:20.531Z,1000.49
2017-03-20T06:24:20.506Z,1000.49
2017-03-20T06:25:20.487Z,1000.5
2017-03-20T06:26:20.463Z,1000.58
2017-03-20T06:27:20.446Z,1000.56
2017-03-20T06:28:20.426Z,1000.58
2017-03-20T06:29:20.404Z,1000.55
2017-03-20T06:30:20.382Z,1000.6
2017-03-20T06:31:20.362Z,1000.57
2017-03-20T06:32:20.346Z,1000.68
2017-03-20T06:33:20.324Z,1000.6
2017-03-20T06:34:20.302Z,1000.57
2017-03-20T06:35:20.285Z,1000.59
2017-03-20T06:36:20.267Z,1000.6
2017-03-20T06:37:20.244Z,1000.61
2017-03-20T06:38:20.220Z,1000.65
2017-03-20T06:39:20.200Z,1000.6
2017-03-20T06:40:20.179Z,1000.65
2017-03-20T06:41:20.164Z,1000.66
2017-03-20T06:42:20.141Z,1000.71
2017-03-20T06:43:20.126Z,1000.74
2017-03-20T06:44:20.104Z,1000.75
2017-03-20T06:45:20.086Z,1000.73
2017-03-20T06:46:20.060Z,1000.76
2017-03-20T06:47:20.037Z,1000.73
2017-03-20T06:48:20.016Z,1000.77
2017-03-20T06:49:20.007Z,1000.71
2017-03-20T06:50:19.987Z,1000.8
2017-03-20T06:51:19.957Z,1000.72
2017-03-20T06:52:19.936Z,1000.68
2017-03-20T06:53:19.916Z,1000.69
2017-03-20T06:54:19.896Z,1000.68
2017-03-20T06:55:19.877Z,1000.73
2017-03-20T06:56:19.854Z,1000.63
2017-03-20T06:57:19.837Z,1000.69
2017-03-20T06:58:19.816Z,1000.73
2017-03-20T06:59:19.797Z,1000.66
2017-03-20T07:00:19.777Z,1000.7
2017-03-20T07:01:19.755Z,1000.59
2017-03-20T07:02:19.737Z,1000.58
2017-03-20T07:03:19.715Z,1000.61
2017-03-20T07:04:19.693Z,1000.6
2017-03-20T07:05:19.677Z,1000.59
2017-03-20T07:06:19.650Z,1000.52
2017-03-20T07:07:19.637Z,1000.59
2017-03-20T07:08:19.612Z,1000.61
2017-03-20T07:09:19.596Z,1000.56
2017-03-20T07:10:19.577Z,1000.55
2017-03-20T07:11:19.554Z,1000.53
2017-03-20T07:12:19.535Z,1000.58
2017-03-20T07:13:19.519Z,1000.57
2017-03-20T07:14:19.491Z,1000.57
2017-03-20T07:15:19.471Z,1000.56
2017-03-20T07:16:19.452Z,1000.63
2017-03-20T07:17:19.430Z,1000.52
2017-03-20T07:18:19.413Z,1000.55
2017-03-20T07:19:19.398Z,1000.57
2017-03-20T07:20:19.376Z,1000.6
2017-03-20T07:21:19.357Z,1000.58
2017-03-20T07:22:19.335Z,1000.61
2017-03-20T07:23:19.317Z,1000.61
2017-03-20T07:24:19.296Z,1000.59
2017-03-20T07:25:19.272Z,1000.63
2017-03-20T07:26:19.254Z,1000.6
2017-03-20T07:27:19.236Z,1000.62
2017-03-20T07:28:19.209Z,1000.65
2017-03-20T07:29:19.196Z,1000.59
2017-03-20T07:30:19.168Z,1000.67
2017-03-20T07:31:19.156Z,1000.63
2017-03-20T07:32:19.130Z,1000.57
2017-03-20T07:33:19.146Z,1000.6
2017-03-20T07:34:19.093Z,1000.62
2017-03-20T07:35:19.079Z,1000.56
2017-03-20T07:36:19.053Z,1000.63
2017-03-20T07:37:19.030Z,1000.59
2017-03-20T07:38:19.007Z,1000.57
2017-03-20T07:39:18.986Z,1000.54
2017-03-20T07:40:18.969Z,1000.61
2017-03-20T07:41:18.951Z,1000.64
2017-03-20T07:42:18.928Z,1000.59
2017-03-20T07:43:18.907Z,1000.61
2017-03-20T07:44:18.886Z,1000.6
2017-03-20T07:45:18.866Z,1000.58
2017-03-20T07:46:18.846Z,1000.61
2017-03-20T07:47:18.827Z,1000.6
2017-03-20T07:48:18.807Z,1000.62
2017-03-20T07:49:18.785Z,1000.51
2017-03-20T07:50:18.765Z,1000.58
2017-03-20T07:51:18.746Z,1000.59
2017-03-20T07:52:18.728Z,1000.56
2017-03-20T07:53:18.705Z,1000.56
2017-03-20T07:54:18.688Z,1000.58
2017-03-20T07:55:18.668Z,1000.54
2017-03-20T07:56:18.643Z,1000.53
2017-03-20T07:57:18.628Z,1000.57
2017-03-20T07:58:18.611Z,1000.54
2017-03-20T07:59:18.587Z,1000.61
2017-03-20T08:00:18.567Z,1000.53
2017-03-20T08:01:18.544Z,1000.51
2017-03-20T08:02:18.526Z,1000.47
2017-03-20T08:03:18.508Z,1000.45
2017-03-20T08:04:18.485Z,1000.43
2017-03-20T08:05:18.461Z,1000.47
2017-03-20T08:06:18.450Z,1000.49
2017-03-20T08:07:18.422Z,1000.52
2017-03-20T08:08:18.401Z,1000.46
2017-03-20T08:09:18.380Z,1000.46
2017-03-20T08:10:18.358Z,1000.56
2017-03-20T08:11:18.342Z,1000.38
2017-03-20T08:12:18.321Z,1000.4
2017-03-20T08:13:18.306Z,1000.37
2017-03-20T08:14:18.281Z,1000.43
2017-03-20T08:15:18.266Z,1000.44
2017-03-20T08:16:18.236Z,1000.49
2017-03-20T08:17:18.215Z,1000.45
2017-03-20T08:18:18.196Z,1000.45
2017-03-20T08:19:18.175Z,1000.44
2017-03-20T08:20:18.155Z,1000.38
2017-03-20T08:21:18.135Z,1000.4
2017-03-20T08:22:18.117Z,1000.48
2017-03-20T08:23:18.095Z,1000.38
2017-03-20T08:24:18.073Z,1000.44
2017-03-20T08:25:18.055Z,1000.38
2017-03-20T08:26:18.039Z,1000.4
2017-03-20T08:27:18.018Z,1000.51
2017-03-20T08:28:17.997Z,1000.43
2017-03-20T08:29:17.976Z,1000.41
2017-03-20T08:30:17.958Z,1000.4
2017-03-20T08:31:17.939Z,1000.47
2017-03-20T08:32:17.913Z,1000.38
2017-03-20T08:33:17.897Z,1000.47
2017-03-20T08:34:17.878Z,1000.45
2017-03-20T08:35:17.866Z,1000.43
2017-03-20T08:36:17.837Z,1000.43
2017-03-20T08:37:17.823Z,1000.42
2017-03-20T08:38:17.796Z,1000.38
2017-03-20T08:39:17.784Z,1000.41
2017-03-20T08:40:17.754Z,1000.43
2017-03-20T08:41:17.735Z,1000.5
2017-03-20T08:42:17.711Z,1000.37
2017-03-20T08:43:17.697Z,1000.39
2017-03-20T08:44:17.687Z,1000.37
2017-03-20T08:45:17.656Z,1000.43
2017-03-20T08:46:17.638Z,1000.39
2017-03-20T08:47:17.615Z,1000.41
2017-03-20T08:48:17.599Z,1000.45
2017-03-20T08:49:17.574Z,1000.41
2017-03-20T08:50:17.556Z,1000.43
2017-03-20T08:51:17.534Z,1000.4
2017-03-20T08:52:17.516Z,1000.38
2017-03-20T08:53:17.505Z,1000.41
2017-03-20T08:54:17.477Z,1000.4
2017-03-20T08:55:17.457Z,1000.43
2017-03-20T08:56:17.436Z,1000.37
2017-03-20T08:57:17.415Z,1000.4
2017-03-20T08:58:17.395Z,1000.38
2017-03-20T08:59:17.387Z,1000.4
2017-03-20T09:00:17.355Z,1000.48
2017-03-20T09:01:17.339Z,1000.45
2017-03-20T09:02:17.316Z,1000.42
2017-03-20T09:03:17.296Z,1000.4
2017-03-20T09:04:17.277Z,1000.43
2017-03-20T09:05:17.256Z,1000.41
2017-03-20T09:06:17.235Z,1000.4
2017-03-20T09:07:17.217Z,1000.43
2017-03-20T09:08:17.199Z,1000.44
2017-03-20T09:09:17.178Z,1000.41
2017-03-20T09:10:17.171Z,1000.48
2017-03-20T09:11:17.141Z,1000.46
2017-03-20T09:12:17.120Z,1000.45
2017-03-20T09:13:17.101Z,1000.43
2017-03-20T09:14:17.132Z,1000.47
2017-03-20T09:15:17.064Z,1000.39
2017-03-20T09:16:17.047Z,1000.44
2017-03-20T09:17:17.027Z,1000.44
2017-03-20T09:18:17.002Z,1000.51
2017-03-20T09:19:16.986Z,1000.46
2017-03-20T09:20:16.965Z,1000.41
2017-03-20T09:21:16.946Z,1000.38
2017-03-20T09:22:16.927Z,1000.38
2017-03-20T09:23:16.909Z,1000.36
2017-03-20T09:24:16.887Z,1000.37
2017-03-20T09:25:16.865Z,1000.36
2017-03-20T09:26:16.846Z,1000.38
2017-03-20T09:27:16.829Z,1000.45
2017-03-20T09:28:16.807Z,1000.36
2017-03-20T09:29:16.788Z,1000.33
2017-03-20T09:30:16.767Z,1000.28
2017-03-20T09:31:16.748Z,1000.3
2017-03-20T09:32:16.727Z,1000.32
2017-03-20T09:33:16.722Z,1000.29
2017-03-20T09:34:16.691Z,1000.36
2017-03-20T09:35:16.674Z,1000.33
2017-03-20T09:36:16.659Z,1000.36
2017-03-20T09:37:16.645Z,1000.34
2017-03-20T09:38:16.613Z,1000.34
2017-03-20T09:39:16.591Z,1000.28
2017-03-20T09:40:16.579Z,1000.29
2017-03-20T09:41:16.550Z,1000.3
2017-03-20T09:42:16.531Z,1000.29
2017-03-20T09:43:16.517Z,1000.3
2017-03-20T09:44:16.498Z,1000.28
2017-03-20T09:45:16.476Z,1000.34
2017-03-20T09:46:16.455Z,1000.38
2017-03-20T09:47:16.435Z,1000.29
2017-03-20T09:48:16.427Z,1000.31
2017-03-20T09:49:16.397Z,1000.35
2017-03-20T09:50:16.376Z,1000.38
2017-03-20T09:51:16.358Z,1000.41
2017-03-20T09:52:16.338Z,1000.39
2017-03-20T09:53:16.317Z,1000.41
2017-03-20T09:54:16.309Z,1000.45
2017-03-20T09:55:16.275Z,1000.47
2017-03-20T09:56:16.266Z,1000.49
2017-03-20T09:57:16.240Z,1000.63
2017-03-20T09:58:16.221Z,1000.59
2017-03-20T09:59:16.210Z,1000.46
2017-03-20T10:00:16.187Z,1000.47
2017-03-20T10:01:16.170Z,1000.57
2017-03-20T10:02:16.145Z,1000.53
2017-03-20T10:03:16.126Z,1000.46
2017-03-20T10:04:16.100Z,1000.41
2017-03-20T10:05:16.088Z,1000.46
2017-03-20T10:06:16.062Z,1000.45
2017-03-20T10:07:16.040Z,1000.41
2017-03-20T10:08:16.020Z,1000.42
2017-03-20T10:09:16.002Z,1000.37
2017-03-20T10:10:15.987Z,1000.42
2017-03-20T10:11:15.966Z,1000.39
2017-03-20T10:12:15.945Z,1000.35
2017-03-20T10:13:15.925Z,1000.33
2017-03-20T10:14:15.908Z,1000.33
2017-03-20T10:15:15.889Z,1000.3
2017-03-20T10:16:15.870Z,1000.31
2017-03-20T10:17:15.843Z,1000.29
2017-03-20T10:18:15.827Z,1000.35
2017-03-20T10:19:15.806Z,1000.46
2017-03-20T10:20:15.796Z,1000.36
2017-03-20T10:21:15.766Z,1000.32
2017-03-20T10:22:15.746Z,1000.38
2017-03-20T10:23:15.729Z,1000.39
2017-03-20T10:24:15.709Z,1000.32
2017-03-20T10:25:15.686Z,1000.33
2017-03-20T10:26:15.666Z,1000.34
2017-03-20T10:27:15.646Z,1000.33
2017-03-20T10:28:15.629Z,1000.33
2017-03-20T10:29:15.610Z,1000.61
2017-03-20T10:30:15.590Z,1000.36
2017-03-20T10:31:15.568Z,1000.37
2017-03-20T10:32:15.551Z,1000.4
2017-03-20T10:33:15.528Z,1000.36
2017-03-20T10:34:15.512Z,1000.38
2017-03-20T10:35:15.485Z,1000.4
2017-03-20T10:36:15.468Z,1000.36
2017-03-20T10:37:15.448Z,1000.31
2017-03-20T10:38:15.434Z,1000.34
2017-03-20T10:39:15.411Z,1000.36
2017-03-20T10:40:15.391Z,1000.36
2017-03-20T10:41:15.376Z,1000.34
2017-03-20T10:42:15.353Z,1000.27
2017-03-20T10:43:15.331Z,1000.34
2017-03-20T10:44:15.315Z,1000.27
2017-03-20T10:45:15.295Z,1000.31
2017-03-20T10:46:15.274Z,1000.34
2017-03-20T10:47:15.253Z,1000.31
2017-03-20T10:48:15.240Z,1000.28
2017-03-20T10:49:15.227Z,1000.27
2017-03-20T10:50:15.196Z,1000.33
2017-03-20T10:51:15.177Z,1000.3
2017-03-20T10:52:15.154Z,1000.25
2017-03-20T10:53:15.136Z,1000.26
2017-03-20T10:54:15.116Z,1000.28
2017-03-20T10:55:15.095Z,1000.27
2017-03-20T10:56:15.090Z,1000.21
2017-03-20T10:57:15.055Z,1000.27
2017-03-20T10:58:15.046Z,1000.3
2017-03-20T10:59:15.030Z,1000.29
2017-03-20T11:00:15.010Z,1000.29
2017-03-20T11:01:14.988Z,1000.26
2017-03-20T11:02:14.966Z,1000.3
2017-03-20T11:03:14.940Z,1000.26
2017-03-20T11:04:14.922Z,1000.26
2017-03-20T11:05:14.907Z,1000.25
2017-03-20T11:06:14.884Z,1000.24
2017-03-20T11:07:14.869Z,1000.25
2017-03-20T11:08:14.846Z,1000.22
2017-03-20T11:09:14.826Z,1000.2
2017-03-20T11:10:14.804Z,1000.17
2017-03-20T11:11:14.787Z,1000.17
2017-03-20T11:12:14.771Z,1000.19
2017-03-20T11:13:14.753Z,1000.16
2017-03-20T11:14:14.738Z,1000.13
2017-03-20T11:15:14.714Z,1000.09
2017-03-20T11:16:14.691Z,1000.21
2017-03-20T11:17:14.668Z,1000.06
2017-03-20T11:18:14.653Z,1000.07
2017-03-20T11:19:14.630Z,1000.04
2017-03-20T11:20:14.616Z,1000.05
2017-03-20T11:21:14.597Z,1000
2017-03-20T11:22:14.577Z,1000.15
2017-03-20T11:23:14.557Z,999.93
2017-03-20T11:24:14.534Z,1000.04
2017-03-20T11:25:14.517Z,999.91
2017-03-20T11:26:14.498Z,1000.03
2017-03-20T11:27:14.476Z,1000.05
2017-03-20T11:28:14.457Z,999.97
2017-03-20T11:29:14.437Z,999.99
2017-03-20T11:30:14.414Z,999.96
2017-03-20T11:31:14.396Z,999.94
2017-03-20T11:32:14.379Z,999.92
2017-03-20T11:33:14.359Z,999.91
2017-03-20T11:34:14.345Z,999.9
2017-03-20T11:35:14.323Z,999.91
2017-03-20T11:36:14.305Z,999.89
2017-03-20T11:37:14.280Z,999.88
2017-03-20T11:38:14.259Z,999.9
2017-03-20T11:39:14.244Z,999.82
2017-03-20T11:40:14.227Z,999.9
2017-03-20T11:41:14.211Z,999.85
2017-03-20T11:42:14.189Z,999.82
2017-03-20T11:43:14.165Z,999.73
2017-03-20T11:44:14.152Z,999.79
2017-03-20T11:45:14.125Z,999.77
2017-03-20T11:46:14.109Z,999.77
2017-03-20T11:47:14.087Z,999.75
2017-03-20T11:48:14.064Z,999.81
2017-03-20T11:49:14.046Z,999.73
2017-03-20T11:50:14.027Z,999.86
2017-03-20T11:51:14.006Z,999.7
2017-03-20T11:52:13.991Z,999.66
2017-03-20T11:53:13.970Z,999.73
2017-03-20T11:54:13.957Z,999.74
2017-03-20T11:55:13.936Z,999.76
2017-03-20T11:56:13.916Z,999.7
2017-03-20T11:57:13.895Z,999.67
2017-03-20T11:58:13.871Z,999.67
2017-03-20T11:59:13.857Z,999.69
2017-03-20T12:00:13.838Z,999.72
2017-03-20T12:01:13.816Z,999.7
2017-03-20T12:02:13.799Z,999.69
2017-03-20T12:03:13.776Z,999.64
2017-03-20T12:04:13.757Z,999.58
2017-03-20T12:05:13.735Z,999.66
2017-03-20T12:06:13.716Z,999.6
2017-03-20T12:07:13.705Z,999.58
2017-03-20T12:08:13.683Z,999.57
2017-03-20T12:09:13.667Z,999.53